createdAt,value
2022-12-28T00:00:59.308Z,96361
2022-12-28T00:02:08.980Z,96363
2022-12-28T00:03:16.608Z,96363
2022-12-28T00:04:25.264Z,96356
2022-12-28T00:05:34.931Z,96357
2022-12-28T00:06:42.587Z,96360
2022-12-28T00:07:51.234Z,96359
2022-12-28T00:09:00.887Z,96356
2022-12-28T00:10:09.565Z,96356
2022-12-28T00:11:28.445Z,96353
2022-12-28T00:12:29.871Z,96351
2022-12-28T00:13:38.523Z,96354
2022-12-28T00:14:48.217Z,96354
2022-12-28T00:15:56.941Z,96353
2022-12-28T00:17:05.544Z,96356
2022-12-28T00:18:15.192Z,96350
2022-12-28T00:19:25.838Z,96351
2022-12-28T00:20:35.537Z,96349
2022-12-28T00:21:43.168Z,96342
2022-12-28T00:22:51.820Z,96345
2022-12-28T00:24:01.531Z,96348
2022-12-28T00:25:10.208Z,96345
2022-12-28T00:26:19.902Z,96350
2022-12-28T00:27:28.539Z,96349
2022-12-28T00:28:37.216Z,96348
2022-12-28T00:29:46.874Z,96346
2022-12-28T00:30:55.518Z,96350
2022-12-28T00:32:04.251Z,96351
2022-12-28T00:33:13.871Z,96355
2022-12-28T00:34:21.518Z,96349
2022-12-28T00:35:30.191Z,96351
2022-12-28T00:37:07.847Z,96350
2022-12-28T00:37:49.453Z,96356
2022-12-28T00:38:59.124Z,96354
2022-12-28T00:40:06.794Z,96354
2022-12-28T00:41:16.421Z,96352
2022-12-28T00:42:26.063Z,96348
2022-12-28T00:43:34.730Z,96346
2022-12-28T00:44:43.437Z,96350
2022-12-28T00:45:52.143Z,96350
2022-12-28T00:47:00.752Z,96346
2022-12-28T00:48:10.447Z,96339
2022-12-28T00:49:20.087Z,96339
2022-12-28T00:50:29.783Z,96336
2022-12-28T00:51:39.450Z,96336
2022-12-28T00:52:47.100Z,96331
2022-12-28T00:53:56.842Z,96330
2022-12-28T00:55:06.600Z,96328
2022-12-28T00:56:15.282Z,96336
2022-12-28T00:57:24.943Z,96337
2022-12-28T00:58:32.591Z,96334
2022-12-28T00:59:42.251Z,96332
2022-12-28T01:00:51.995Z,96332
2022-12-28T01:01:59.715Z,96330
2022-12-28T01:03:08.348Z,96338
2022-12-28T01:04:17.947Z,96334
2022-12-28T01:05:26.570Z,96330
2022-12-28T01:06:36.242Z,96333
2022-12-28T01:07:44.914Z,96332
2022-12-28T01:08:54.579Z,96326
2022-12-28T01:10:04.281Z,96329
2022-12-28T01:11:12.921Z,96329
2022-12-28T01:12:22.575Z,96327
2022-12-28T01:13:32.271Z,96328
2022-12-28T01:14:40.927Z,96329
2022-12-28T01:15:50.596Z,96330
2022-12-28T01:16:59.293Z,96326
2022-12-28T01:18:07.893Z,96328
2022-12-28T01:19:17.579Z,96322
2022-12-28T01:20:27.267Z,96327
2022-12-28T01:21:35.890Z,96324
2022-12-28T01:22:44.529Z,96323
2022-12-28T01:23:53.182Z,96323
2022-12-28T01:25:02.871Z,96321
2022-12-28T01:26:10.523Z,96326
2022-12-28T01:27:20.177Z,96320
2022-12-28T01:28:29.843Z,96327
2022-12-28T01:29:38.526Z,96325
2022-12-28T01:30:48.188Z,96331
2022-12-28T01:31:56.900Z,96334
2022-12-28T01:33:05.493Z,96331
2022-12-28T01:34:15.150Z,96337
2022-12-28T01:35:22.786Z,96339
2022-12-28T01:36:32.537Z,96343
2022-12-28T01:37:42.155Z,96340
2022-12-28T01:38:51.822Z,96340
2022-12-28T01:40:00.461Z,96340
2022-12-28T01:41:09.153Z,96339
2022-12-28T01:42:18.849Z,96339
2022-12-28T01:43:29.299Z,96341
2022-12-28T01:44:37.130Z,96341
2022-12-28T01:45:45.783Z,96337
2022-12-28T01:46:55.427Z,96333
2022-12-28T01:48:04.121Z,96335
2022-12-28T01:49:12.763Z,96332
2022-12-28T01:50:21.426Z,96334
2022-12-28T01:51:31.114Z,96329
2022-12-28T01:52:40.808Z,96326
2022-12-28T01:53:50.469Z,96326
2022-12-28T01:54:59.136Z,96323
2022-12-28T01:56:08.779Z,96320
2022-12-28T01:57:17.434Z,96315
2022-12-28T01:58:27.119Z,96318
2022-12-28T01:59:34.761Z,96319
2022-12-28T02:00:43.402Z,96316
2022-12-28T02:01:53.131Z,96309
2022-12-28T02:03:01.738Z,96307
2022-12-28T02:04:11.360Z,96307
2022-12-28T02:05:21.030Z,96302
2022-12-28T02:06:29.673Z,96298
2022-12-28T02:07:39.357Z,96299
2022-12-28T02:08:49.032Z,96296
2022-12-28T02:10:42.051Z,96285
2022-12-28T02:11:09.310Z,96287
2022-12-28T02:12:17.959Z,96276
2022-12-28T02:13:27.606Z,96280
2022-12-28T02:14:36.257Z,96281
2022-12-28T02:15:45.919Z,96280
2022-12-28T02:16:55.714Z,96270
2022-12-28T02:18:05.282Z,96267
2022-12-28T02:19:14.014Z,96267
2022-12-28T02:20:22.643Z,96270
2022-12-28T02:21:32.301Z,96266
2022-12-28T02:22:41.983Z,96262
2022-12-28T02:23:50.663Z,96263
2022-12-28T02:25:11.941Z,96265
2022-12-28T02:26:10.920Z,96261
2022-12-28T02:27:20.566Z,96261
2022-12-28T02:28:29.257Z,96261
2022-12-28T02:29:37.910Z,96264
2022-12-28T02:30:46.566Z,96263
2022-12-28T02:31:56.252Z,96261
2022-12-28T02:33:04.908Z,96256
2022-12-28T02:34:14.572Z,96251
2022-12-28T02:35:24.239Z,96251
2022-12-28T02:36:32.908Z,96254
2022-12-28T02:37:41.575Z,96253
2022-12-28T02:38:50.225Z,96256
2022-12-28T02:39:58.923Z,96250
2022-12-28T02:41:08.566Z,96247
2022-12-28T02:42:17.209Z,96251
2022-12-28T02:43:26.848Z,96246
2022-12-28T02:44:36.552Z,96245
2022-12-28T02:45:45.198Z,96245
2022-12-28T02:46:53.846Z,96245
2022-12-28T02:48:02.494Z,96244
2022-12-28T02:49:11.133Z,96246
2022-12-28T02:50:19.790Z,96243
2022-12-28T02:51:27.488Z,96245
2022-12-28T02:52:36.141Z,96244
2022-12-28T02:53:45.808Z,96242
2022-12-28T02:54:54.444Z,96240
2022-12-28T02:56:03.141Z,96237
2022-12-28T02:57:12.841Z,96237
2022-12-28T02:58:21.476Z,96237
2022-12-28T02:59:31.141Z,96240
2022-12-28T03:00:40.790Z,96232
2022-12-28T03:01:50.578Z,96233
2022-12-28T03:03:00.178Z,96230
2022-12-28T03:04:09.802Z,96228
2022-12-28T03:05:18.449Z,96224
2022-12-28T03:06:30.374Z,96224
2022-12-28T03:07:36.754Z,96227
2022-12-28T03:08:46.421Z,96224
2022-12-28T03:09:55.069Z,96216
2022-12-28T03:11:03.709Z,96218
2022-12-28T03:12:15.673Z,96215
2022-12-28T03:13:22.046Z,96218
2022-12-28T03:14:30.713Z,96215
2022-12-28T03:15:40.394Z,96208
2022-12-28T03:16:49.034Z,96210
2022-12-28T03:17:58.698Z,96205
2022-12-28T03:19:07.334Z,96201
2022-12-28T03:20:17.022Z,96205
2022-12-28T03:21:26.702Z,96202
2022-12-28T03:22:34.338Z,96200
2022-12-28T03:23:43.989Z,96196
2022-12-28T03:24:52.659Z,96198
2022-12-28T03:26:01.364Z,96194
2022-12-28T03:27:11.001Z,96196
2022-12-28T03:28:20.667Z,96191
2022-12-28T03:29:29.300Z,96189
2022-12-28T03:30:39.079Z,96184
2022-12-28T03:31:47.632Z,96181
2022-12-28T03:32:57.295Z,96174
2022-12-28T03:34:07.180Z,96177
2022-12-28T03:35:16.620Z,96181
2022-12-28T03:36:26.296Z,96179
2022-12-28T03:37:35.960Z,96177
2022-12-28T03:38:45.615Z,96179
2022-12-28T03:39:55.276Z,96177
2022-12-28T03:41:02.921Z,96174
2022-12-28T03:42:11.567Z,96168
2022-12-28T03:43:20.257Z,96172
2022-12-28T03:44:28.931Z,96168
2022-12-28T03:45:44.825Z,96166
2022-12-28T03:46:49.223Z,96164
2022-12-28T03:47:57.882Z,96164
2022-12-28T03:49:07.594Z,96160
2022-12-28T03:50:15.250Z,96156
2022-12-28T03:51:24.914Z,96157
2022-12-28T03:52:34.574Z,96157
2022-12-28T03:53:44.223Z,96152
2022-12-28T03:54:53.903Z,96154
2022-12-28T03:56:02.554Z,96151
2022-12-28T03:57:12.247Z,96137
2022-12-28T03:58:21.911Z,96137
2022-12-28T03:59:31.589Z,96138
2022-12-28T04:00:41.265Z,96143
2022-12-28T04:01:50.040Z,96136
2022-12-28T04:02:59.648Z,96140
2022-12-28T04:04:09.255Z,96143
2022-12-28T04:05:17.905Z,96143
2022-12-28T04:06:27.593Z,96141
2022-12-28T04:07:37.253Z,96153
2022-12-28T04:08:45.916Z,96148
2022-12-28T04:09:55.572Z,96149
2022-12-28T04:11:05.215Z,96150
2022-12-28T04:12:13.897Z,96153
2022-12-28T04:13:22.547Z,96156
2022-12-28T04:14:32.188Z,96152
2022-12-28T04:15:41.936Z,96153
2022-12-28T04:16:50.505Z,96154
2022-12-28T04:17:59.168Z,96151
2022-12-28T04:19:08.841Z,96149
2022-12-28T04:20:15.474Z,96150
2022-12-28T04:21:24.128Z,96148
2022-12-28T04:22:33.782Z,96138
2022-12-28T04:23:43.469Z,96133
2022-12-28T04:24:53.169Z,96135
2022-12-28T04:26:01.848Z,96133
2022-12-28T04:27:10.508Z,96134
2022-12-28T04:28:20.184Z,96132
2022-12-28T04:29:27.908Z,96130
2022-12-28T04:30:37.570Z,96138
2022-12-28T04:31:47.341Z,96137
2022-12-28T04:32:56.876Z,96138
2022-12-28T04:34:06.541Z,96133
2022-12-28T04:35:15.229Z,96135
2022-12-28T04:36:24.880Z,96132
2022-12-28T04:37:34.557Z,96131
2022-12-28T04:38:42.199Z,96131
2022-12-28T04:39:54.472Z,96131
2022-12-28T04:41:01.530Z,96132
2022-12-28T04:42:10.207Z,96130
2022-12-28T04:43:19.855Z,96129
2022-12-28T04:44:28.528Z,96127
2022-12-28T04:45:36.183Z,96131
2022-12-28T04:46:45.907Z,96133
2022-12-28T04:47:55.560Z,96131
2022-12-28T04:49:04.192Z,96125
2022-12-28T04:50:12.906Z,96128
2022-12-28T04:51:21.600Z,96128
2022-12-28T04:52:31.259Z,96128
2022-12-28T04:53:37.905Z,96126
2022-12-28T04:54:46.541Z,96124
2022-12-28T04:55:56.195Z,96128
2022-12-28T04:57:04.842Z,96130
2022-12-28T04:58:14.619Z,96128
2022-12-28T04:59:23.318Z,96130
2022-12-28T05:00:33.044Z,96124
2022-12-28T05:01:42.816Z,96129
2022-12-28T05:02:50.306Z,96135
2022-12-28T05:04:00.063Z,96128
2022-12-28T05:05:09.632Z,96127
2022-12-28T05:06:18.290Z,96123
2022-12-28T05:07:26.942Z,96120
2022-12-28T05:08:36.605Z,96116
2022-12-28T05:09:46.264Z,96117
2022-12-28T05:10:55.920Z,96115
2022-12-28T05:12:03.566Z,96122
2022-12-28T05:13:13.270Z,96123
2022-12-28T05:14:23.045Z,96128
2022-12-28T05:15:33.704Z,96129
2022-12-28T05:16:42.457Z,96126
2022-12-28T05:17:52.047Z,96125
2022-12-28T05:19:01.721Z,96120
2022-12-28T05:20:11.421Z,96122
2022-12-28T05:21:20.073Z,96122
2022-12-28T05:22:28.743Z,96118
2022-12-28T05:23:39.388Z,96116
2022-12-28T05:24:47.042Z,96116
2022-12-28T05:25:55.706Z,96117
2022-12-28T05:27:05.400Z,96122
2022-12-28T05:28:14.048Z,96118
2022-12-28T05:29:23.740Z,96117
2022-12-28T05:30:33.422Z,96110
2022-12-28T05:31:41.095Z,96109
2022-12-28T05:32:50.775Z,96099
2022-12-28T05:34:00.439Z,96103
2022-12-28T05:35:09.097Z,96104
2022-12-28T05:36:18.799Z,96105
2022-12-28T05:37:28.436Z,96106
2022-12-28T05:38:38.175Z,96109
2022-12-28T05:39:47.859Z,96103
2022-12-28T05:40:56.535Z,96098
2022-12-28T05:42:06.240Z,96101
2022-12-28T05:43:13.892Z,96093
2022-12-28T05:44:23.586Z,96092
2022-12-28T05:45:32.242Z,96090
2022-12-28T05:46:40.940Z,96095
2022-12-28T05:47:50.601Z,96097
2022-12-28T05:49:00.257Z,96097
2022-12-28T05:50:09.030Z,96098
2022-12-28T05:51:18.692Z,96103
2022-12-28T05:52:28.475Z,96100
2022-12-28T05:53:37.014Z,96099
2022-12-28T05:54:46.665Z,96097
2022-12-28T05:55:56.366Z,96097
2022-12-28T05:57:06.037Z,96097
2022-12-28T05:58:15.732Z,96102
2022-12-28T05:59:25.418Z,96110
2022-12-28T06:00:34.056Z,96107
2022-12-28T06:01:43.847Z,96107
2022-12-28T06:02:53.523Z,96103
2022-12-28T06:04:01.067Z,96106
2022-12-28T06:05:11.753Z,96107
2022-12-28T06:06:20.377Z,96100
2022-12-28T06:07:29.039Z,96097
2022-12-28T06:08:38.736Z,96096
2022-12-28T06:09:48.385Z,96092
2022-12-28T06:10:57.030Z,96093
2022-12-28T06:12:06.701Z,96097
2022-12-28T06:13:15.358Z,96094
2022-12-28T06:14:25.047Z,96094
2022-12-28T06:15:34.716Z,96092
2022-12-28T06:16:43.531Z,96096
2022-12-28T06:17:52.022Z,96094
2022-12-28T06:19:00.715Z,96099
2022-12-28T06:20:10.397Z,96097
2022-12-28T06:21:20.045Z,96099
2022-12-28T06:22:27.702Z,96103
2022-12-28T06:23:36.381Z,96105
2022-12-28T06:24:45.124Z,96110
2022-12-28T06:25:54.773Z,96109
2022-12-28T06:27:04.430Z,96109
2022-12-28T06:28:13.093Z,96109
2022-12-28T06:29:21.751Z,96109
2022-12-28T06:30:31.459Z,96113
2022-12-28T06:31:38.223Z,96117
2022-12-28T06:32:47.786Z,96111
2022-12-28T06:33:56.451Z,96110
2022-12-28T06:35:06.110Z,96116
2022-12-28T06:36:19.811Z,96110
2022-12-28T06:37:25.440Z,96111
2022-12-28T06:38:34.089Z,96116
2022-12-28T06:39:43.745Z,96120
2022-12-28T06:41:12.627Z,96118
2022-12-28T06:42:03.051Z,96118
2022-12-28T06:43:11.708Z,96120
2022-12-28T06:44:20.367Z,96117
2022-12-28T06:45:30.188Z,96111
2022-12-28T06:46:38.840Z,96115
2022-12-28T06:47:47.521Z,96115
2022-12-28T06:48:57.212Z,96107
2022-12-28T06:50:04.880Z,96109
2022-12-28T06:51:14.546Z,96105
2022-12-28T06:52:24.199Z,96098
2022-12-28T06:53:32.874Z,96103
2022-12-28T06:54:42.553Z,96103
2022-12-28T06:55:52.212Z,96104
2022-12-28T06:57:00.902Z,96099
2022-12-28T06:58:10.539Z,96102
2022-12-28T06:59:19.238Z,96103
2022-12-28T07:00:27.894Z,96103
2022-12-28T07:01:37.933Z,96104
2022-12-28T07:02:47.279Z,96098
2022-12-28T07:03:56.919Z,96101
2022-12-28T07:05:04.631Z,96101
2022-12-28T07:06:14.285Z,96096
2022-12-28T07:07:23.947Z,96101
2022-12-28T07:08:32.607Z,96103
2022-12-28T07:09:42.269Z,96099
2022-12-28T07:10:51.944Z,96104
2022-12-28T07:12:01.596Z,96105
2022-12-28T07:13:11.297Z,96105
2022-12-28T07:14:19.950Z,96103
2022-12-28T07:15:28.588Z,96104
2022-12-28T07:17:38.691Z,96106
2022-12-28T07:18:47.330Z,96103
2022-12-28T07:19:55.997Z,96106
2022-12-28T07:21:04.644Z,96104
2022-12-28T07:22:14.327Z,96106
2022-12-28T07:23:21.961Z,96107
2022-12-28T07:24:30.627Z,96110
2022-12-28T07:25:40.287Z,96108
2022-12-28T07:26:48.961Z,96105
2022-12-28T07:27:57.675Z,96106
2022-12-28T07:29:07.414Z,96105
2022-12-28T07:30:17.034Z,96108
2022-12-28T07:31:26.707Z,96105
2022-12-28T07:32:34.405Z,96106
2022-12-28T07:33:44.149Z,96098
2022-12-28T07:34:53.783Z,96100
2022-12-28T07:36:02.564Z,96099
2022-12-28T07:37:11.235Z,96101
2022-12-28T07:38:21.603Z,96103
2022-12-28T07:39:29.727Z,96109
2022-12-28T07:40:39.391Z,96107
2022-12-28T07:41:47.091Z,96109
2022-12-28T07:42:55.772Z,96111
2022-12-28T07:44:05.449Z,96110
2022-12-28T07:45:13.156Z,96113
2022-12-28T07:46:21.835Z,96111
2022-12-28T07:47:30.510Z,96113
2022-12-28T07:48:39.161Z,96110
2022-12-28T07:49:48.857Z,96113
2022-12-28T07:50:57.547Z,96112
2022-12-28T07:52:06.222Z,96117
2022-12-28T07:53:18.746Z,96119
2022-12-28T07:54:24.513Z,96118
2022-12-28T07:55:34.213Z,96120
2022-12-28T07:57:42.305Z,96123
2022-12-28T07:59:52.391Z,96115
2022-12-28T08:01:02.205Z,96115
2022-12-28T08:02:11.916Z,96115
2022-12-28T08:03:20.465Z,96115
2022-12-28T08:04:30.149Z,96109
2022-12-28T08:05:37.841Z,96103
2022-12-28T08:06:46.489Z,96103
2022-12-28T08:07:58.448Z,96101
2022-12-28T08:09:04.906Z,96100
2022-12-28T08:10:14.596Z,96104
2022-12-28T08:11:23.253Z,96098
2022-12-28T08:12:31.904Z,96105
2022-12-28T08:13:41.618Z,96096
2022-12-28T08:14:50.288Z,96101
2022-12-28T08:16:00.008Z,96101
2022-12-28T08:17:08.681Z,96105
2022-12-28T08:18:18.297Z,96105
2022-12-28T08:19:27.982Z,96103
2022-12-28T08:20:36.632Z,96104
2022-12-28T08:21:45.339Z,96094
2022-12-28T08:22:56.034Z,96097
2022-12-28T08:24:05.712Z,96093
2022-12-28T08:25:14.413Z,96092
2022-12-28T08:26:23.104Z,96094
2022-12-28T08:27:38.239Z,96091
2022-12-28T08:28:42.416Z,96093
2022-12-28T08:29:50.085Z,96095
2022-12-28T08:30:58.846Z,96098
2022-12-28T08:32:08.488Z,96098
2022-12-28T08:33:18.193Z,96096
2022-12-28T08:34:27.851Z,96096
2022-12-28T08:35:36.528Z,96102
2022-12-28T08:36:46.294Z,96096
2022-12-28T08:37:55.941Z,96098
2022-12-28T08:39:04.678Z,96098
2022-12-28T08:40:13.333Z,96095
2022-12-28T08:41:22.998Z,96098
2022-12-28T08:42:31.700Z,96102
2022-12-28T08:43:41.350Z,96106
2022-12-28T08:44:51.025Z,96108
2022-12-28T08:46:00.776Z,96106
2022-12-28T08:47:10.398Z,96109
2022-12-28T08:48:18.073Z,96107
2022-12-28T08:49:26.732Z,96106
2022-12-28T08:50:36.385Z,96106
2022-12-28T08:51:45.035Z,96105
2022-12-28T08:52:53.759Z,96105
2022-12-28T08:54:02.482Z,96102
2022-12-28T08:55:11.179Z,96098
2022-12-28T08:56:20.884Z,96091
2022-12-28T08:57:29.534Z,96092
2022-12-28T08:58:39.256Z,96093
2022-12-28T08:59:48.923Z,96090
2022-12-28T09:00:57.631Z,96090
2022-12-28T09:02:06.367Z,96083
2022-12-28T09:03:15.066Z,96087
2022-12-28T09:04:23.604Z,96084
2022-12-28T09:05:39.316Z,96077
2022-12-28T09:06:42.953Z,96083
2022-12-28T09:07:56.220Z,96081
2022-12-28T09:09:05.657Z,96079
2022-12-28T09:10:11.931Z,96083
2022-12-28T09:11:21.618Z,96079
2022-12-28T09:12:30.336Z,96077
2022-12-28T09:13:39.028Z,96074
2022-12-28T09:14:48.714Z,96079
2022-12-28T09:15:58.445Z,96075
2022-12-28T09:17:07.106Z,96071
2022-12-28T09:18:16.788Z,96068
2022-12-28T09:19:25.476Z,96069
2022-12-28T09:20:34.137Z,96070
2022-12-28T09:21:44.881Z,96062
2022-12-28T09:22:54.485Z,96067
2022-12-28T09:24:04.169Z,96066
2022-12-28T09:25:13.841Z,96064
2022-12-28T09:26:23.512Z,96070
2022-12-28T09:27:33.242Z,96069
2022-12-28T09:28:40.919Z,96070
2022-12-28T09:29:49.587Z,96070
2022-12-28T09:30:58.250Z,96071
2022-12-28T09:32:07.899Z,96070
2022-12-28T09:33:17.589Z,96070
2022-12-28T09:34:35.950Z,96072
2022-12-28T09:35:34.905Z,96071
2022-12-28T09:36:44.596Z,96071
2022-12-28T09:37:54.320Z,96059
2022-12-28T09:39:03.073Z,96058
2022-12-28T09:40:11.715Z,96056
2022-12-28T09:41:21.389Z,96052
2022-12-28T09:42:31.108Z,96058
2022-12-28T09:43:40.777Z,96052
2022-12-28T09:44:50.491Z,96056
2022-12-28T09:46:00.159Z,96047
2022-12-28T09:47:08.842Z,96049
2022-12-28T09:48:18.527Z,96047
2022-12-28T09:49:27.212Z,96046
2022-12-28T09:50:35.903Z,96044
2022-12-28T09:51:44.662Z,96041
2022-12-28T09:52:53.363Z,96046
2022-12-28T09:54:03.076Z,96046
2022-12-28T09:55:11.749Z,96044
2022-12-28T09:56:21.396Z,96041
2022-12-28T09:57:31.115Z,96038
2022-12-28T09:58:41.975Z,96037
2022-12-28T09:59:50.473Z,96036
2022-12-28T10:00:59.166Z,96035
2022-12-28T10:02:07.918Z,96027
2022-12-28T10:03:17.634Z,96025
2022-12-28T10:04:25.214Z,96026
2022-12-28T10:05:35.875Z,96028
2022-12-28T10:06:44.534Z,96028
2022-12-28T10:07:54.228Z,96030
2022-12-28T10:09:02.898Z,96027
2022-12-28T10:10:12.618Z,96026
2022-12-28T10:11:22.225Z,96020
2022-12-28T10:12:31.949Z,96025
2022-12-28T10:13:56.506Z,96018
2022-12-28T10:14:51.489Z,96017
2022-12-28T10:16:01.130Z,96014
2022-12-28T10:17:08.781Z,96010
2022-12-28T10:18:18.464Z,96011
2022-12-28T10:19:28.127Z,96008
2022-12-28T10:20:36.893Z,96004
2022-12-28T10:21:46.477Z,96001
2022-12-28T10:22:54.123Z,96003
2022-12-28T10:24:30.055Z,95996
2022-12-28T10:25:14.423Z,95995
2022-12-28T10:26:24.130Z,96000
2022-12-28T10:27:32.774Z,95992
2022-12-28T10:28:45.610Z,95994
2022-12-28T10:29:52.045Z,95987
2022-12-28T10:31:01.767Z,95989
2022-12-28T10:32:09.403Z,95986
2022-12-28T10:33:19.074Z,95984
2022-12-28T10:34:33.338Z,95986
2022-12-28T10:35:38.376Z,95980
2022-12-28T10:36:47.019Z,95981
2022-12-28T10:37:55.703Z,95980
2022-12-28T10:39:04.379Z,95978
2022-12-28T10:40:14.072Z,95968
2022-12-28T10:41:21.709Z,95972
2022-12-28T10:42:30.381Z,95974
2022-12-28T10:43:40.062Z,95968
2022-12-28T10:44:48.712Z,95968
2022-12-28T10:45:58.385Z,95967
2022-12-28T10:47:07.111Z,95961
2022-12-28T10:48:16.705Z,95962
2022-12-28T10:49:26.432Z,95962
2022-12-28T10:50:37.641Z,95961
2022-12-28T10:51:43.754Z,95955
2022-12-28T10:52:53.415Z,95959
2022-12-28T10:54:01.110Z,95957
2022-12-28T10:55:10.838Z,95958
2022-12-28T10:56:20.470Z,95951
2022-12-28T10:57:30.119Z,95954
2022-12-28T10:58:40.809Z,95950
2022-12-28T10:59:50.430Z,95950
2022-12-28T11:00:59.166Z,95950
2022-12-28T11:02:09.899Z,95938
2022-12-28T11:03:18.505Z,95942
2022-12-28T11:04:28.166Z,95941
2022-12-28T11:05:36.848Z,95933
2022-12-28T11:06:45.509Z,95936
2022-12-28T11:07:55.168Z,95932
2022-12-28T11:09:02.850Z,95933
2022-12-28T11:10:11.491Z,95935
2022-12-28T11:11:21.139Z,95935
2022-12-28T11:12:29.818Z,95933
2022-12-28T11:13:38.462Z,95936
2022-12-28T11:14:47.160Z,95935
2022-12-28T11:15:56.835Z,95943
2022-12-28T11:17:06.443Z,95936
2022-12-28T11:18:15.147Z,95930
2022-12-28T11:19:23.820Z,95928
2022-12-28T11:20:33.463Z,95930
2022-12-28T11:21:43.130Z,95933
2022-12-28T11:22:52.783Z,95926
2022-12-28T11:24:02.465Z,95932
2022-12-28T11:25:12.124Z,95931
2022-12-28T11:26:21.796Z,95931
2022-12-28T11:27:29.446Z,95934
2022-12-28T11:28:38.093Z,95923
2022-12-28T11:29:47.828Z,95919
2022-12-28T11:30:57.524Z,95915
2022-12-28T11:32:07.156Z,95920
2022-12-28T11:33:16.865Z,95922
2022-12-28T11:34:26.552Z,95914
2022-12-28T11:35:36.236Z,95913
2022-12-28T11:36:44.909Z,95916
2022-12-28T11:37:54.556Z,95916
2022-12-28T11:39:04.236Z,95913
2022-12-28T11:40:12.897Z,95908
2022-12-28T11:41:21.574Z,95914
2022-12-28T11:42:39.340Z,95914
2022-12-28T11:43:40.855Z,95910
2022-12-28T11:44:50.498Z,95908
2022-12-28T11:45:58.230Z,95908
2022-12-28T11:47:07.894Z,95904
2022-12-28T11:48:17.526Z,95902
2022-12-28T11:49:26.186Z,95904
2022-12-28T11:50:35.884Z,95899
2022-12-28T11:51:43.554Z,95903
2022-12-28T11:52:52.272Z,95907
2022-12-28T11:54:01.941Z,95900
2022-12-28T11:55:10.603Z,95899
2022-12-28T11:56:20.277Z,95898
2022-12-28T11:57:28.946Z,95896
2022-12-28T11:58:37.660Z,95892
2022-12-28T11:59:47.328Z,95895
2022-12-28T12:00:56.036Z,95890
2022-12-28T12:02:05.713Z,95887
2022-12-28T12:03:15.461Z,95881
2022-12-28T12:04:24.074Z,95881
2022-12-28T12:05:33.767Z,95885
2022-12-28T12:06:41.436Z,95882
2022-12-28T12:07:50.075Z,95876
2022-12-28T12:08:59.745Z,95873
2022-12-28T12:10:08.436Z,95877
2022-12-28T12:11:17.102Z,95876
2022-12-28T12:12:24.770Z,95875
2022-12-28T12:13:33.456Z,95866
2022-12-28T12:14:43.191Z,95865
2022-12-28T12:15:52.869Z,95866
2022-12-28T12:17:02.575Z,95864
2022-12-28T12:18:12.222Z,95862
2022-12-28T12:19:21.977Z,95862
2022-12-28T12:20:30.613Z,95862
2022-12-28T12:21:39.317Z,95863
2022-12-28T12:22:48.990Z,95860
2022-12-28T12:23:58.648Z,95857
2022-12-28T12:25:06.310Z,95854
2022-12-28T12:26:15.963Z,95855
2022-12-28T12:27:25.670Z,95852
2022-12-28T12:28:34.337Z,95848
2022-12-28T12:29:43.056Z,95845
2022-12-28T12:30:51.764Z,95842
2022-12-28T12:32:01.420Z,95840
2022-12-28T12:33:11.123Z,95842
2022-12-28T12:34:20.096Z,95840
2022-12-28T12:35:28.486Z,95831
2022-12-28T12:36:38.137Z,95832
2022-12-28T12:37:46.840Z,95829
2022-12-28T12:38:55.561Z,95826
2022-12-28T12:40:04.220Z,95830
2022-12-28T12:41:13.914Z,95818
2022-12-28T12:42:23.600Z,95825
2022-12-28T12:43:31.254Z,95816
2022-12-28T12:44:39.949Z,95817
2022-12-28T12:45:49.658Z,95816
2022-12-28T12:47:03.807Z,95813
2022-12-28T12:48:08.941Z,95811
2022-12-28T12:49:17.644Z,95802
2022-12-28T12:50:26.357Z,95801
2022-12-28T12:51:35.059Z,95802
2022-12-28T12:52:43.708Z,95799
2022-12-28T12:53:53.366Z,95799
2022-12-28T12:55:03.042Z,95797
2022-12-28T12:56:10.774Z,95789
2022-12-28T12:57:19.393Z,95791
2022-12-28T12:58:29.101Z,95791
2022-12-28T12:59:37.764Z,95789
2022-12-28T13:00:48.888Z,95785
2022-12-28T13:01:57.232Z,95785
2022-12-28T13:03:05.816Z,95780
2022-12-28T13:04:15.437Z,95782
2022-12-28T13:05:25.106Z,95779
2022-12-28T13:06:34.761Z,95784
2022-12-28T13:07:43.463Z,95785
2022-12-28T13:08:53.101Z,95778
2022-12-28T13:10:03.752Z,95777
2022-12-28T13:11:12.626Z,95774
2022-12-28T13:12:22.301Z,95777
2022-12-28T13:13:31.991Z,95778
2022-12-28T13:14:40.660Z,95778
2022-12-28T13:15:49.371Z,95778
2022-12-28T13:16:58.006Z,95777
2022-12-28T13:19:17.322Z,95773
2022-12-28T13:20:24.961Z,95768
2022-12-28T13:21:33.627Z,95772
2022-12-28T13:22:42.353Z,95768
2022-12-28T13:23:51.085Z,95766
2022-12-28T13:24:59.770Z,95768
2022-12-28T13:26:09.434Z,95766
2022-12-28T13:27:18.107Z,95772
2022-12-28T13:28:26.776Z,95765
2022-12-28T13:29:35.453Z,95763
2022-12-28T13:30:44.176Z,95765
2022-12-28T13:31:53.795Z,95769
2022-12-28T13:33:01.471Z,95767
2022-12-28T13:34:11.150Z,95762
2022-12-28T13:35:20.840Z,95763
2022-12-28T13:36:29.507Z,95765
2022-12-28T13:37:39.383Z,95762
2022-12-28T13:38:47.033Z,95767
2022-12-28T13:39:55.726Z,95763
2022-12-28T13:41:05.347Z,95758
2022-12-28T13:42:15.063Z,95763
2022-12-28T13:43:23.769Z,95755
2022-12-28T13:44:33.637Z,95751
2022-12-28T13:45:46.270Z,95758
2022-12-28T13:46:52.950Z,95760
2022-12-28T13:48:01.631Z,95749
2022-12-28T13:49:11.339Z,95758
2022-12-28T13:50:19.045Z,95755
2022-12-28T13:51:27.668Z,95760
2022-12-28T13:52:37.353Z,95755
2022-12-28T13:53:47.032Z,95753
2022-12-28T13:54:55.703Z,95752
2022-12-28T13:56:05.412Z,95752
2022-12-28T13:57:45.114Z,95749
2022-12-28T13:58:25.705Z,95753
2022-12-28T13:59:34.454Z,95751
2022-12-28T14:00:44.187Z,95749
2022-12-28T14:01:54.007Z,95753
2022-12-28T14:03:02.668Z,95752
2022-12-28T14:04:50.983Z,95749
2022-12-28T14:05:23.093Z,95750
2022-12-28T14:06:32.656Z,95746
2022-12-28T14:07:42.358Z,95750
2022-12-28T14:08:51.061Z,95747
2022-12-28T14:10:00.755Z,95748
2022-12-28T14:11:10.468Z,95743
2022-12-28T14:12:18.129Z,95747
2022-12-28T14:13:26.779Z,95743
2022-12-28T14:14:36.465Z,95742
2022-12-28T14:15:46.205Z,95741
2022-12-28T14:16:55.842Z,95740
2022-12-28T14:18:03.582Z,95738
2022-12-28T14:19:13.266Z,95734
2022-12-28T14:20:23.007Z,95737
2022-12-28T14:21:32.643Z,95729
2022-12-28T14:22:41.354Z,95731
2022-12-28T14:23:51.012Z,95734
2022-12-28T14:25:00.706Z,95736
2022-12-28T14:26:10.435Z,95740
2022-12-28T14:27:19.118Z,95739
2022-12-28T14:28:28.785Z,95736
2022-12-28T14:29:38.456Z,95735
2022-12-28T14:30:47.180Z,95736
2022-12-28T14:31:55.782Z,95737
2022-12-28T14:33:10.011Z,95738
2022-12-28T14:34:17.468Z,95738
2022-12-28T14:35:25.759Z,95738
2022-12-28T14:36:34.430Z,95741
2022-12-28T14:37:44.073Z,95741
2022-12-28T14:38:53.754Z,95739
2022-12-28T14:40:04.406Z,95741
2022-12-28T14:41:13.055Z,95741
2022-12-28T14:42:21.757Z,95743
2022-12-28T14:43:31.362Z,95739
2022-12-28T14:44:41.054Z,95739
2022-12-28T14:46:05.529Z,95734
2022-12-28T14:47:01.584Z,95734
2022-12-28T14:48:11.082Z,95731
2022-12-28T14:49:18.691Z,95731
2022-12-28T14:50:28.371Z,95731
2022-12-28T14:51:41.131Z,95730
2022-12-28T14:52:47.702Z,95728
2022-12-28T14:53:57.365Z,95727
2022-12-28T14:55:05.123Z,95724